Time;durP1;ratioP1;P1;durP2;ratioP2;P2;SDS_P1;SDS_P2;PMS_P1;PMS_P2;Temp;Humidity;BMP_temperature;BMP_pressure;BME280_temperature;BME280_humidity;BME280_pressure;Samples;Min_cycle;Max_cycle;Signal;HPM_P1;HPM_P2
2022/06/11 00:01:32;;;;;;;;;;;17.50;99.90;;;;;;5025680;28;20381;-83
2022/06/11 00:04:03;;;;;;;;;;;17.50;99.90;;;;;;5017193;28;19917;-81
2022/06/11 00:06:32;;;;;;;;;;;17.40;99.90;;;;;;5032843;28;19917;-81
2022/06/11 00:08:58;;;;;;;;;;;17.30;99.90;;;;;;4992091;28;19921;-81
2022/06/11 00:11:24;;;;;;;;;;;17.20;99.90;;;;;;5063036;28;19917;-82
2022/06/11 00:13:50;;;;;;;;;;;17.10;99.90;;;;;;5008884;28;19917;-81
2022/06/11 00:16:17;;;;;;;;;;;17.10;99.90;;;;;;5034869;28;19921;-81
2022/06/11 00:18:44;;;;;;;;;;;17.00;99.90;;;;;;5037134;28;20345;-82
2022/06/11 00:21:13;;;;;;;;;;;16.90;99.90;;;;;;5020226;28;19964;-82
2022/06/11 00:23:40;;;;;;;;;;;16.80;99.90;;;;;;5021340;28;19924;-81
2022/06/11 00:26:06;;;;;;;;;;;16.60;99.90;;;;;;5036858;28;19917;-80
2022/06/11 00:28:32;;;;;;;;;;;16.50;99.90;;;;;;5004464;28;19921;-82
2022/06/11 00:30:58;;;;;;;;;;;16.30;99.90;;;;;;5018562;28;20273;-83
2022/06/11 00:33:23;;;;;;;;;;;16.20;99.90;;;;;;5052211;28;20282;-82
2022/06/11 00:35:50;;;;;;;;;;;16.20;99.90;;;;;;5019132;28;19917;-81
2022/06/11 00:38:17;;;;;;;;;;;16.10;99.90;;;;;;5068965;28;19995;-82
2022/06/11 00:40:44;;;;;;;;;;;16.00;99.90;;;;;;5014110;28;19999;-82
2022/06/11 00:43:10;;;;;;;;;;;15.90;99.90;;;;;;5054545;28;19917;-81
2022/06/11 00:45:56;;;;;;;;;;;15.80;99.90;;;;;;5051127;28;19963;-82
2022/06/11 00:48:27;;;;;;;;;;;15.70;99.90;;;;;;4972124;28;19927;-81
2022/06/11 00:50:59;;;;;;;;;;;15.80;99.90;;;;;;5051680;28;19924;-82
2022/06/11 00:53:32;;;;;;;;;;;15.70;99.90;;;;;;5033834;28;19929;-82
2022/06/11 00:55:58;;;;;;;;;;;15.70;99.90;;;;;;5014532;28;20384;-82
2022/06/11 00:58:26;;;;;;;;;;;15.70;99.90;;;;;;5013542;28;20023;-81
2022/06/11 01:00:53;;;;;;;;;;;15.60;99.90;;;;;;5034023;28;19917;-83
2022/06/11 01:03:22;;;;;;;;;;;15.50;99.90;;;;;;5020596;28;19959;-81
2022/06/11 01:05:49;;;;;;;;;;;15.40;99.90;;;;;;5059390;28;20301;-84
2022/06/11 01:08:21;;;;;;;;;;;15.30;99.90;;;;;;5033824;28;20370;-83
2022/06/11 01:10:56;;;;;;;;;;;15.20;99.90;;;;;;5025878;28;19924;-83
2022/06/11 01:13:38;;;;;;;;;;;15.20;99.90;;;;;;5063510;28;19940;-83
2022/06/11 01:16:07;;;;;;;;;;;15.00;99.90;;;;;;5050888;28;19916;-82
2022/06/11 01:18:47;;;;;;;;;;;14.80;99.90;;;;;;4988091;28;19917;-82
2022/06/11 01:21:13;;;;;;;;;;;15.10;99.90;;;;;;5033670;28;20340;-83
2022/06/11 01:23:59;;;;;;;;;;;15.10;99.90;;;;;;5034760;28;20008;-84
2022/06/11 01:26:44;;;;;;;;;;;15.10;99.90;;;;;;5021268;28;19921;-82
2022/06/11 01:29:28;;;;;;;;;;;15.10;99.90;;;;;;5016878;28;20366;-83
2022/06/11 01:31:56;;;;;;;;;;;15.10;99.90;;;;;;5035671;28;19923;-82
2022/06/11 01:34:27;;;;;;;;;;;15.00;99.90;;;;;;5035836;28;20388;-81
2022/06/11 01:36:56;;;;;;;;;;;15.00;99.90;;;;;;5017995;28;19917;-82
2022/06/11 01:39:30;;;;;;;;;;;15.00;99.90;;;;;;5009196;28;19923;-82
2022/06/11 01:42:12;;;;;;;;;;;14.90;99.90;;;;;;5053162;28;19920;-83
2022/06/11 01:44:39;;;;;;;;;;;14.90;99.90;;;;;;5032777;28;19917;-82
2022/06/11 01:47:05;;;;;;;;;;;15.00;99.90;;;;;;5053189;28;19990;-82
2022/06/11 01:49:33;;;;;;;;;;;15.10;99.90;;;;;;5001783;28;19917;-81
2022/06/11 01:52:17;;;;;;;;;;;15.10;99.90;;;;;;5035306;28;19928;-81
2022/06/11 01:54:43;;;;;;;;;;;15.10;99.90;;;;;;5015148;28;19924;-81
2022/06/11 01:57:27;;;;;;;;;;;15.10;99.90;;;;;;5013453;28;19917;-80
2022/06/11 02:00:02;;;;;;;;;;;15.00;99.90;;;;;;5026307;28;20309;-82
2022/06/11 02:02:43;;;;;;;;;;;15.00;99.90;;;;;;4997164;28;20012;-83
2022/06/11 02:05:11;;;;;;;;;;;14.90;99.90;;;;;;5012401;28;19917;-81
2022/06/11 02:07:41;;;;;;;;;;;14.90;99.90;;;;;;5019710;28;20012;-81
2022/06/11 02:10:07;;;;;;;;;;;14.80;99.90;;;;;;5016910;28;19917;-81
2022/06/11 02:12:36;;;;;;;;;;;14.70;99.90;;;;;;5040372;28;20070;-83
2022/06/11 02:15:06;;;;;;;;;;;14.60;99.90;;;;;;5010578;28;19940;-82
2022/06/11 02:17:34;;;;;;;;;;;14.50;99.90;;;;;;5007946;28;19924;-84
2022/06/11 02:20:04;;;;;;;;;;;14.50;99.90;;;;;;5031111;28;20242;-82
2022/06/11 02:22:48;;;;;;;;;;;14.30;99.90;;;;;;5007984;28;19921;-82
2022/06/11 02:25:26;;;;;;;;;;;14.20;99.90;;;;;;5009727;28;19924;-82
2022/06/11 02:27:54;;;;;;;;;;;14.10;99.90;;;;;;5022477;28;20391;-80
2022/06/11 02:30:22;;;;;;;;;;;14.10;99.90;;;;;;5015715;28;19917;-81
2022/06/11 02:32:48;;;;;;;;;;;14.10;99.90;;;;;;5006539;28;19917;-80
2022/06/11 02:35:23;;;;;;;;;;;14.20;99.90;;;;;;5013718;28;19918;-82
2022/06/11 02:37:48;;;;;;;;;;;14.20;99.90;;;;;;5004889;28;19924;-82
2022/06/11 02:40:25;;;;;;;;;;;14.20;99.90;;;;;;5000625;28;19917;-81
2022/06/11 02:42:50;;;;;;;;;;;14.30;99.90;;;;;;5004664;28;19928;-82
2022/06/11 02:45:17;;;;;;;;;;;14.30;99.90;;;;;;5047654;28;20286;-83
2022/06/11 02:47:44;;;;;;;;;;;14.30;99.90;;;;;;5014539;28;19971;-82
2022/06/11 02:50:16;;;;;;;;;;;14.30;99.90;;;;;;5035970;28;19956;-81
2022/06/11 02:52:42;;;;;;;;;;;14.20;99.90;;;;;;5025262;28;19928;-83
2022/06/11 02:55:09;;;;;;;;;;;14.20;99.90;;;;;;4997060;28;19935;-83
2022/06/11 02:57:38;;;;;;;;;;;14.10;99.90;;;;;;5013656;28;19917;-81
2022/06/11 03:00:05;;;;;;;;;;;14.10;99.90;;;;;;5003816;28;20461;-83
2022/06/11 03:02:31;;;;;;;;;;;14.10;99.90;;;;;;5013104;28;20007;-82
2022/06/11 03:04:56;;;;;;;;;;;14.10;99.90;;;;;;5024458;28;20322;-82
2022/06/11 03:07:22;;;;;;;;;;;13.50;99.90;;;;;;5010501;28;19926;-84
2022/06/11 03:09:48;;;;;;;;;;;14.10;99.90;;;;;;5029536;28;19962;-82
2022/06/11 03:12:15;;;;;;;;;;;14.10;99.90;;;;;;5030981;28;19928;-84
2022/06/11 03:14:44;;;;;;;;;;;14.00;99.90;;;;;;5013105;28;19921;-82
2022/06/11 03:17:11;;;;;;;;;;;14.00;99.90;;;;;;5022402;28;19917;-82
2022/06/11 03:19:37;;;;;;;;;;;14.00;99.90;;;;;;5012063;28;20294;-82
2022/06/11 03:22:03;;;;;;;;;;;14.00;99.90;;;;;;5005229;28;19924;-82
2022/06/11 03:24:28;;;;;;;;;;;14.00;99.90;;;;;;4996046;28;19921;-80
2022/06/11 03:26:55;;;;;;;;;;;13.90;99.90;;;;;;5052858;28;20004;-83
2022/06/11 03:29:22;;;;;;;;;;;13.80;99.90;;;;;;5029425;28;19921;-82
2022/06/11 03:31:48;;;;;;;;;;;13.80;99.90;;;;;;5012083;28;19917;-81
2022/06/11 03:34:14;;;;;;;;;;;13.80;99.90;;;;;;5025007;28;19924;-83
2022/06/11 03:36:40;;;;;;;;;;;13.80;99.90;;;;;;5028474;28;19971;-81
2022/06/11 03:39:06;;;;;;;;;;;13.70;99.90;;;;;;5017321;28;19921;-81
2022/06/11 03:41:32;;;;;;;;;;;13.70;99.90;;;;;;5010519;28;20351;-82
2022/06/11 03:43:58;;;;;;;;;;;13.70;99.90;;;;;;5006455;28;20374;-81
2022/06/11 03:46:23;;;;;;;;;;;13.60;99.90;;;;;;5030673;28;19921;-81
2022/06/11 03:48:49;;;;;;;;;;;13.60;99.90;;;;;;5028589;28;20578;-81
2022/06/11 03:51:14;;;;;;;;;;;13.60;99.90;;;;;;5018343;28;20309;-81
2022/06/11 03:53:41;;;;;;;;;;;13.60;99.90;;;;;;5002022;28;19916;-82
2022/06/11 03:56:07;;;;;;;;;;;13.50;99.90;;;;;;5054789;28;19917;-80
2022/06/11 03:58:33;;;;;;;;;;;13.60;99.90;;;;;;5037443;28;19962;-81
2022/06/11 04:01:14;;;;;;;;;;;13.60;99.90;;;;;;5054151;28;20005;-82
2022/06/11 04:03:41;;;;;;;;;;;13.70;99.90;;;;;;5012606;28;19952;-82
2022/06/11 04:06:08;;;;;;;;;;;13.80;99.90;;;;;;5033991;28;19916;-80
2022/06/11 04:08:34;;;;;;;;;;;13.80;99.90;;;;;;5028251;28;19924;-82
2022/06/11 04:11:01;;;;;;;;;;;13.90;99.90;;;;;;5019996;28;19917;-83
2022/06/11 04:13:27;;;;;;;;;;;13.90;99.90;;;;;;5034633;28;19917;-82
2022/06/11 04:15:54;;;;;;;;;;;14.00;99.90;;;;;;5015481;28;19916;-80
2022/06/11 04:18:40;;;;;;;;;;;14.00;99.90;;;;;;5018081;28;19923;-81
2022/06/11 04:21:10;;;;;;;;;;;14.10;99.90;;;;;;5003478;28;19925;-81
2022/06/11 04:23:37;;;;;;;;;;;14.10;99.90;;;;;;5002710;28;19917;-81
2022/06/11 04:26:05;;;;;;;;;;;14.20;99.90;;;;;;5031804;28;20336;-84
2022/06/11 04:28:31;;;;;;;;;;;14.30;99.90;;;;;;5020632;28;20362;-82
2022/06/11 04:30:58;;;;;;;;;;;14.40;99.90;;;;;;5036645;28;19966;-81
2022/06/11 04:33:24;;;;;;;;;;;14.40;99.90;;;;;;5002222;28;19917;-81
2022/06/11 04:35:49;;;;;;;;;;;14.50;99.90;;;;;;5051539;28;19917;-83
2022/06/11 04:38:15;;;;;;;;;;;14.50;99.90;;;;;;5046775;28;20343;-83
2022/06/11 04:40:41;;;;;;;;;;;14.60;99.90;;;;;;5002542;28;19920;-83
2022/06/11 04:43:06;;;;;;;;;;;14.60;99.90;;;;;;5005319;28;20391;-82
2022/06/11 04:45:32;;;;;;;;;;;14.70;99.90;;;;;;5013467;28;19917;-82
2022/06/11 04:47:57;;;;;;;;;;;14.80;99.90;;;;;;5042948;28;19932;-82
2022/06/11 04:50:23;;;;;;;;;;;14.90;99.90;;;;;;5051697;28;19916;-82
2022/06/11 04:52:49;;;;;;;;;;;14.90;99.90;;;;;;5068643;28;19928;-82
2022/06/11 04:55:15;;;;;;;;;;;15.00;99.90;;;;;;5037006;28;19925;-82
2022/06/11 04:57:43;;;;;;;;;;;15.00;99.90;;;;;;5020818;28;19986;-82
2022/06/11 05:00:09;;;;;;;;;;;15.10;99.90;;;;;;5013115;28;19923;-82
2022/06/11 05:02:36;;;;;;;;;;;15.20;99.90;;;;;;5016827;28;19928;-83
2022/06/11 05:05:02;;;;;;;;;;;15.20;99.90;;;;;;5063201;28;19917;-82
2022/06/11 05:07:27;;;;;;;;;;;15.30;99.90;;;;;;5000289;28;20334;-82
2022/06/11 05:09:53;;;;;;;;;;;15.30;99.90;;;;;;5001222;28;19917;-82
2022/06/11 05:12:18;;;;;;;;;;;15.40;99.90;;;;;;5002032;28;20004;-82
2022/06/11 05:14:44;;;;;;;;;;;15.40;99.90;;;;;;5000515;28;19935;-82
2022/06/11 05:17:10;;;;;;;;;;;15.50;99.90;;;;;;5037816;28;19967;-81
2022/06/11 05:19:35;;;;;;;;;;;15.50;99.90;;;;;;5017769;28;19917;-83
2022/06/11 05:22:01;;;;;;;;;;;15.60;99.90;;;;;;5041538;28;19917;-83
2022/06/11 05:24:29;;;;;;;;;;;15.60;99.90;;;;;;5002490;28;20266;-85
2022/06/11 05:27:06;;;;;;;;;;;15.70;99.90;;;;;;4992095;28;20293;-85
2022/06/11 05:29:34;;;;;;;;;;;15.70;99.90;;;;;;5035451;28;20007;-83
2022/06/11 05:31:59;;;;;;;;;;;15.80;99.90;;;;;;5030257;28;19917;-82
2022/06/11 05:34:26;;;;;;;;;;;15.90;99.90;;;;;;4996038;28;19933;-83
2022/06/11 05:36:52;;;;;;;;;;;15.90;99.90;;;;;;5022627;28;19983;-82
2022/06/11 05:39:17;;;;;;;;;;;15.90;99.90;;;;;;5041228;28;19935;-81
2022/06/11 05:41:43;;;;;;;;;;;15.90;99.90;;;;;;4986480;28;19967;-81
2022/06/11 05:44:09;;;;;;;;;;;15.90;99.90;;;;;;5010353;28;19916;-82
2022/06/11 05:46:35;;;;;;;;;;;15.90;99.90;;;;;;5003315;28;19927;-82
2022/06/11 05:49:02;;;;;;;;;;;15.90;99.90;;;;;;5017531;28;19921;-83
2022/06/11 05:51:31;;;;;;;;;;;16.00;99.90;;;;;;5005118;28;19916;-81
2022/06/11 05:53:58;;;;;;;;;;;16.00;99.90;;;;;;5070085;28;19982;-82
2022/06/11 05:56:24;;;;;;;;;;;16.00;99.90;;;;;;5002370;28;20318;-81
2022/06/11 05:58:51;;;;;;;;;;;16.10;99.90;;;;;;5036399;28;19966;-82
2022/06/11 06:01:18;;;;;;;;;;;16.10;99.90;;;;;;5048523;28;19917;-81
2022/06/11 06:03:44;;;;;;;;;;;16.10;99.90;;;;;;5034164;28;19921;-82
2022/06/11 06:06:10;;;;;;;;;;;16.20;99.90;;;;;;5025946;28;20036;-84
2022/06/11 06:08:35;;;;;;;;;;;16.30;99.90;;;;;;5052574;28;19921;-83
2022/06/11 06:11:01;;;;;;;;;;;16.30;99.90;;;;;;5001466;28;19917;-84
2022/06/11 06:16:11;;;;;;;;;;;16.40;99.90;;;;;;5045093;28;19980;-80
2022/06/11 06:18:37;;;;;;;;;;;16.40;99.90;;;;;;5004659;28;19979;-82
2022/06/11 06:21:03;;;;;;;;;;;16.50;99.90;;;;;;5030460;28;19917;-84
2022/06/11 06:23:31;;;;;;;;;;;16.50;99.90;;;;;;5002124;28;19917;-80
2022/06/11 06:25:56;;;;;;;;;;;16.60;99.90;;;;;;5006359;28;19967;-82
2022/06/11 06:28:22;;;;;;;;;;;16.70;99.90;;;;;;5032356;28;19925;-83
2022/06/11 06:30:51;;;;;;;;;;;16.80;99.90;;;;;;5034015;28;19921;-84
2022/06/11 06:33:16;;;;;;;;;;;16.80;99.90;;;;;;5015624;28;19931;-83
2022/06/11 06:35:42;;;;;;;;;;;16.90;99.90;;;;;;5009713;28;19917;-81
2022/06/11 06:38:07;;;;;;;;;;;17.00;99.90;;;;;;5014631;28;20344;-82
2022/06/11 06:40:33;;;;;;;;;;;17.10;99.90;;;;;;4991017;28;19917;-83
2022/06/11 06:42:59;;;;;;;;;;;17.20;99.90;;;;;;5027161;28;20650;-83
2022/06/11 06:45:25;;;;;;;;;;;17.20;99.90;;;;;;5039192;28;20015;-83
2022/06/11 06:47:51;;;;;;;;;;;17.20;99.90;;;;;;5005460;28;20027;-82
2022/06/11 06:50:17;;;;;;;;;;;17.30;99.90;;;;;;5027698;28;19924;-82
2022/06/11 06:52:43;;;;;;;;;;;17.30;99.90;;;;;;5010667;28;19921;-83
2022/06/11 06:55:08;;;;;;;;;;;17.40;99.90;;;;;;5000869;28;20270;-83
2022/06/11 06:57:34;;;;;;;;;;;17.50;99.90;;;;;;5025087;28;19921;-83
2022/06/11 07:00:01;;;;;;;;;;;17.50;99.90;;;;;;5018080;28;19960;-83
2022/06/11 07:02:27;;;;;;;;;;;17.60;99.90;;;;;;5009176;28;19920;-85
2022/06/11 07:04:53;;;;;;;;;;;17.80;99.90;;;;;;5011778;28;19946;-83
2022/06/11 07:07:19;;;;;;;;;;;17.80;99.90;;;;;;5015448;28;19917;-83
2022/06/11 07:09:45;;;;;;;;;;;18.00;99.90;;;;;;5016264;28;19917;-81
2022/06/11 07:12:11;;;;;;;;;;;18.00;99.90;;;;;;5054819;28;19917;-82
2022/06/11 07:14:37;;;;;;;;;;;18.20;99.90;;;;;;5025147;28;19967;-82
2022/06/11 07:17:07;;;;;;;;;;;18.30;99.90;;;;;;5028850;28;19921;-84
2022/06/11 07:19:36;;;;;;;;;;;18.30;99.90;;;;;;5010455;28;19970;-82
2022/06/11 07:22:05;;;;;;;;;;;18.30;99.90;;;;;;5000295;28;19996;-82
2022/06/11 07:24:32;;;;;;;;;;;18.30;99.90;;;;;;5014031;28;20031;-83
2022/06/11 07:27:02;;;;;;;;;;;18.50;99.90;;;;;;5027139;28;19924;-83
2022/06/11 07:29:29;;;;;;;;;;;18.60;99.90;;;;;;5060353;28;19931;-83
2022/06/11 07:31:56;;;;;;;;;;;18.60;99.90;;;;;;5012924;28;20441;-82
2022/06/11 07:34:22;;;;;;;;;;;18.80;99.90;;;;;;5048113;28;19967;-81
2022/06/11 07:36:48;;;;;;;;;;;18.90;99.90;;;;;;5031298;28;19971;-83
2022/06/11 07:39:15;;;;;;;;;;;18.80;99.90;;;;;;4999908;28;19924;-82
2022/06/11 07:41:41;;;;;;;;;;;18.80;99.90;;;;;;5032986;28;19917;-83
2022/06/11 07:44:06;;;;;;;;;;;18.90;99.90;;;;;;5001020;28;19917;-82
2022/06/11 07:46:32;;;;;;;;;;;19.00;99.90;;;;;;5004893;28;19916;-81
2022/06/11 07:48:58;;;;;;;;;;;19.00;99.90;;;;;;5040135;28;19931;-82
2022/06/11 07:51:23;;;;;;;;;;;19.10;99.90;;;;;;5036697;28;19952;-82
2022/06/11 07:53:49;;;;;;;;;;;18.60;99.90;;;;;;5023085;28;19917;-83
2022/06/11 07:56:16;;;;;;;;;;;18.90;99.90;;;;;;5052032;28;19979;-81
2022/06/11 07:58:41;;;;;;;;;;;18.90;99.90;;;;;;5019283;28;19999;-83
2022/06/11 08:01:07;;;;;;;;;;;19.10;99.90;;;;;;5020646;28;19964;-81
2022/06/11 08:03:36;;;;;;;;;;;19.10;99.90;;;;;;5031832;28;20289;-82
2022/06/11 08:06:05;;;;;;;;;;;19.10;99.90;;;;;;5033017;28;19917;-82
2022/06/11 08:08:32;;;;;;;;;;;19.20;99.90;;;;;;4998856;28;19943;-82
2022/06/11 08:10:59;;;;;;;;;;;19.20;99.90;;;;;;5031709;28;19928;-81
2022/06/11 08:13:25;;;;;;;;;;;19.30;99.90;;;;;;5015077;28;19924;-82
2022/06/11 08:15:53;;;;;;;;;;;19.50;99.90;;;;;;4998848;28;19921;-83
2022/06/11 08:18:20;;;;;;;;;;;19.60;99.90;;;;;;5015366;28;20004;-81
2022/06/11 08:20:46;;;;;;;;;;;19.70;99.90;;;;;;5031265;28;20401;-82
2022/06/11 08:23:12;;;;;;;;;;;19.60;99.90;;;;;;5034522;28;20085;-82
2022/06/11 08:25:38;;;;;;;;;;;19.70;99.90;;;;;;5031117;28;19924;-82
2022/06/11 08:28:05;;;;;;;;;;;19.90;99.90;;;;;;5058293;28;19921;-83
2022/06/11 08:30:31;;;;;;;;;;;19.70;99.90;;;;;;5021609;28;20266;-80
2022/06/11 08:32:56;;;;;;;;;;;19.50;99.90;;;;;;5067387;28;19924;-81
2022/06/11 08:35:24;;;;;;;;;;;19.60;99.90;;;;;;5001028;28;19916;-82
2022/06/11 08:37:50;;;;;;;;;;;19.60;99.90;;;;;;5022423;28;20370;-81
2022/06/11 08:40:19;;;;;;;;;;;19.60;99.90;;;;;;5023393;28;19924;-81
2022/06/11 08:42:47;;;;;;;;;;;19.90;99.90;;;;;;5024605;28;19931;-81
2022/06/11 08:45:19;;;;;;;;;;;20.20;99.90;;;;;;5018747;28;19963;-82
2022/06/11 08:47:54;;;;;;;;;;;20.50;99.90;;;;;;5029279;28;20388;-81
2022/06/11 08:50:22;;;;;;;;;;;20.60;99.90;;;;;;5033151;28;19963;-82
2022/06/11 08:52:48;;;;;;;;;;;20.60;99.90;;;;;;5001953;28;19974;-82
2022/06/11 08:55:13;;;;;;;;;;;20.60;99.90;;;;;;5036567;28;20301;-82
2022/06/11 08:57:58;;;;;;;;;;;20.40;99.90;;;;;;5028432;28;19928;-82
2022/06/11 09:00:36;;;;;;;;;;;20.20;99.90;;;;;;5030458;28;19971;-81
2022/06/11 09:03:08;;;;;;;;;;;20.20;99.90;;;;;;5014490;28;19923;-82
2022/06/11 09:05:41;;;;;;;;;;;20.30;99.90;;;;;;5017771;28;20000;-81
2022/06/11 09:08:13;;;;;;;;;;;20.40;99.90;;;;;;5031774;28;19920;-82
2022/06/11 09:10:41;;;;;;;;;;;20.50;99.90;;;;;;5017943;28;20249;-82
2022/06/11 09:13:19;;;;;;;;;;;20.60;99.90;;;;;;5063835;28;19917;-81
2022/06/11 09:15:51;;;;;;;;;;;20.70;99.90;;;;;;5000665;28;19925;-80
2022/06/11 09:18:23;;;;;;;;;;;20.80;99.90;;;;;;5000581;28;20373;-81
2022/06/11 09:20:57;;;;;;;;;;;20.80;99.90;;;;;;5049437;28;19967;-82
2022/06/11 09:23:30;;;;;;;;;;;20.80;99.90;;;;;;5061615;28;20271;-82
2022/06/11 09:26:11;;;;;;;;;;;20.80;99.90;;;;;;5000774;28;19921;-81
2022/06/11 09:28:40;;;;;;;;;;;20.80;99.90;;;;;;5011265;28;19956;-80
2022/06/11 09:31:11;;;;;;;;;;;20.80;99.90;;;;;;5018694;28;19927;-82
2022/06/11 09:33:43;;;;;;;;;;;20.70;99.90;;;;;;5016064;28;19968;-81
2022/06/11 09:36:14;;;;;;;;;;;20.70;99.90;;;;;;5033278;28;20011;-81
2022/06/11 09:38:54;;;;;;;;;;;20.80;99.90;;;;;;5067952;28;20281;-82
2022/06/11 09:41:35;;;;;;;;;;;20.90;99.90;;;;;;5019366;28;19927;-82
2022/06/11 09:44:19;;;;;;;;;;;20.90;99.90;;;;;;5021011;28;20251;-81
2022/06/11 09:46:54;;;;;;;;;;;20.70;99.90;;;;;;5021519;28;20317;-82
2022/06/11 09:49:26;;;;;;;;;;;20.60;99.90;;;;;;5009652;28;20290;-81
2022/06/11 09:52:07;;;;;;;;;;;20.60;99.90;;;;;;5049116;28;19921;-82
2022/06/11 09:54:51;;;;;;;;;;;20.40;99.90;;;;;;5047958;28;20015;-80
2022/06/11 09:57:23;;;;;;;;;;;20.50;99.90;;;;;;5016340;28;20000;-81
2022/06/11 10:00:02;;;;;;;;;;;20.60;99.90;;;;;;5048558;28;20389;-80
2022/06/11 10:05:40;;;;;;;;;;;20.70;99.90;;;;;;4975345;28;20416;-80
2022/06/11 10:08:14;;;;;;;;;;;20.60;99.90;;;;;;5062814;28;19932;-80
2022/06/11 10:10:41;;;;;;;;;;;20.60;99.90;;;;;;5014617;28;19987;-81
2022/06/11 10:13:14;;;;;;;;;;;20.70;99.90;;;;;;5049781;28;19928;-81
2022/06/11 10:15:42;;;;;;;;;;;20.80;99.90;;;;;;5003638;28;19917;-82
2022/06/11 10:18:29;;;;;;;;;;;20.90;99.90;;;;;;5035683;28;19977;-81
2022/06/11 10:21:06;;;;;;;;;;;21.00;99.90;;;;;;4987064;28;19927;-82
2022/06/11 10:23:58;;;;;;;;;;;21.00;99.90;;;;;;5049541;28;19924;-81
2022/06/11 10:26:32;;;;;;;;;;;21.00;99.90;;;;;;5013230;28;19923;-80
2022/06/11 10:29:01;;;;;;;;;;;21.00;99.90;;;;;;4998804;28;19928;-82
2022/06/11 10:31:48;;;;;;;;;;;21.10;99.90;;;;;;5031920;28;19917;-81
2022/06/11 10:34:21;;;;;;;;;;;21.10;99.90;;;;;;5030988;28;19917;-82
2022/06/11 10:36:56;;;;;;;;;;;21.00;99.90;;;;;;5006069;28;19940;-80
2022/06/11 10:39:45;;;;;;;;;;;21.00;99.90;;;;;;5004053;28;19917;-82
2022/06/11 10:42:26;;;;;;;;;;;21.00;99.90;;;;;;5063369;28;19920;-81
2022/06/11 10:44:53;;;;;;;;;;;21.30;99.90;;;;;;5008101;28;19917;-81
2022/06/11 10:47:24;;;;;;;;;;;21.50;99.90;;;;;;5035106;28;19917;-81
2022/06/11 10:49:51;;;;;;;;;;;21.50;99.50;;;;;;5017549;28;19975;-81
2022/06/11 10:52:35;;;;;;;;;;;21.30;99.20;;;;;;5022783;28;19944;-80
2022/06/11 10:55:03;;;;;;;;;;;21.20;99.90;;;;;;5003843;28;20325;-81
2022/06/11 10:57:29;;;;;;;;;;;21.30;99.90;;;;;;5031092;28;19963;-82
2022/06/11 11:00:02;;;;;;;;;;;21.60;99.70;;;;;;5009383;28;20004;-81
2022/06/11 11:02:31;;;;;;;;;;;21.50;99.70;;;;;;5022288;28;19924;-81
2022/06/11 11:04:56;;;;;;;;;;;21.30;98.20;;;;;;5027895;28;20384;-81
2022/06/11 11:07:24;;;;;;;;;;;21.30;97.90;;;;;;4999952;28;19921;-81
2022/06/11 11:09:50;;;;;;;;;;;21.40;96.80;;;;;;5027940;28;19940;-81
2022/06/11 11:12:45;;;;;;;;;;;21.50;94.70;;;;;;4989779;28;20361;-81
2022/06/11 11:15:13;;;;;;;;;;;21.50;94.60;;;;;;4998041;28;20000;-81
2022/06/11 11:17:47;;;;;;;;;;;21.50;93.50;;;;;;5061388;28;19916;-82
2022/06/11 11:20:34;;;;;;;;;;;21.60;93.30;;;;;;4999150;28;19928;-81
2022/06/11 11:23:20;;;;;;;;;;;21.60;93.40;;;;;;5037962;28;20329;-80
2022/06/11 11:25:49;;;;;;;;;;;21.80;93.90;;;;;;5016206;28;20745;-80
2022/06/11 11:28:17;;;;;;;;;;;21.80;92.40;;;;;;5031851;28;19921;-82
2022/06/11 11:30:43;;;;;;;;;;;21.90;93.80;;;;;;5050075;28;19921;-81
2022/06/11 11:33:29;;;;;;;;;;;22.00;92.80;;;;;;5045014;28;20008;-81
2022/06/11 11:36:00;;;;;;;;;;;22.10;93.00;;;;;;5060495;28;20014;-81
2022/06/11 11:38:27;;;;;;;;;;;22.10;91.50;;;;;;5048619;28;20401;-82
2022/06/11 11:40:57;;;;;;;;;;;21.90;91.80;;;;;;5026203;28;20379;-81
2022/06/11 11:43:24;;;;;;;;;;;21.70;92.30;;;;;;5033565;28;19916;-81
2022/06/11 11:45:52;;;;;;;;;;;21.80;93.40;;;;;;5016188;28;20369;-83
2022/06/11 11:48:36;;;;;;;;;;;21.90;93.30;;;;;;4997867;28;19929;-80
2022/06/11 11:51:05;;;;;;;;;;;22.10;92.90;;;;;;5024146;28;19975;-80
2022/06/11 11:53:49;;;;;;;;;;;22.40;91.70;;;;;;5012811;28;20286;-81
2022/06/11 11:56:41;;;;;;;;;;;22.40;91.70;;;;;;5048856;28;19944;-83
2022/06/11 11:59:19;;;;;;;;;;;22.50;92.30;;;;;;5027582;28;19923;-81
2022/06/11 12:01:46;;;;;;;;;;;22.70;93.00;;;;;;5021483;28;19931;-81
2022/06/11 12:04:16;;;;;;;;;;;23.00;91.20;;;;;;5033864;28;19923;-81
2022/06/11 12:06:44;;;;;;;;;;;23.00;91.10;;;;;;5030297;28;19960;-81
2022/06/11 12:09:30;;;;;;;;;;;23.00;90.50;;;;;;5024959;28;20389;-81
2022/06/11 12:12:05;;;;;;;;;;;22.80;89.80;;;;;;5016802;28;19960;-81
2022/06/11 12:14:39;;;;;;;;;;;22.50;89.20;;;;;;5033850;28;19924;-81
2022/06/11 12:17:15;;;;;;;;;;;22.50;90.40;;;;;;5020494;28;19978;-81
2022/06/11 12:19:42;;;;;;;;;;;22.60;89.30;;;;;;5057280;28;19924;-81
2022/06/11 12:22:22;;;;;;;;;;;22.60;88.10;;;;;;5036140;28;20325;-81
2022/06/11 12:24:49;;;;;;;;;;;22.50;88.00;;;;;;5054419;28;20362;-81
2022/06/11 12:27:20;;;;;;;;;;;22.40;87.10;;;;;;5016029;28;19974;-81
2022/06/11 12:29:52;;;;;;;;;;;22.30;87.50;;;;;;5014663;28;19920;-82
2022/06/11 12:32:19;;;;;;;;;;;22.40;91.00;;;;;;5020911;28;19923;-82
2022/06/11 12:34:45;;;;;;;;;;;22.70;86.10;;;;;;5057407;28;20382;-82
2022/06/11 12:37:29;;;;;;;;;;;22.40;86.40;;;;;;5068603;28;19970;-81
2022/06/11 12:40:05;;;;;;;;;;;22.30;85.80;;;;;;5024912;28;19920;-81
2022/06/11 12:42:51;;;;;;;;;;;22.40;85.00;;;;;;5043655;28;20011;-81
2022/06/11 12:45:25;;;;;;;;;;;22.60;87.50;;;;;;5019208;28;20281;-82
2022/06/11 12:48:09;;;;;;;;;;;22.90;83.50;;;;;;5017075;28;19927;-81
2022/06/11 12:50:38;;;;;;;;;;;23.00;83.30;;;;;;5001215;28;19973;-81
2022/06/11 12:53:21;;;;;;;;;;;23.40;87.70;;;;;;5000944;28;20367;-80
2022/06/11 12:55:59;;;;;;;;;;;23.60;82.40;;;;;;5034395;28;19917;-82
2022/06/11 12:58:33;;;;;;;;;;;23.70;82.50;;;;;;5034501;28;19932;-81
2022/06/11 13:01:20;;;;;;;;;;;23.70;82.60;;;;;;5008640;28;20286;-82
2022/06/11 13:03:52;;;;;;;;;;;23.60;80.30;;;;;;5020776;28;19967;-82
2022/06/11 13:06:33;;;;;;;;;;;23.60;80.70;;;;;;5031231;28;20281;-82
2022/06/11 13:08:58;;;;;;;;;;;23.80;84.90;;;;;;5020468;28;20270;-81
2022/06/11 13:11:27;;;;;;;;;;;24.10;81.20;;;;;;5020184;28;19923;-81
2022/06/11 13:14:15;;;;;;;;;;;24.00;80.20;;;;;;5014647;28;19917;-81
2022/06/11 13:16:51;;;;;;;;;;;24.10;83.30;;;;;;5014626;28;19917;-82
2022/06/11 13:19:25;;;;;;;;;;;24.30;79.10;;;;;;5027689;28;19917;-81
2022/06/11 13:21:59;;;;;;;;;;;24.30;77.20;;;;;;5033533;28;19947;-84
2022/06/11 13:24:34;;;;;;;;;;;23.80;75.90;;;;;;5062141;28;19921;-81
2022/06/11 13:27:02;;;;;;;;;;;23.60;76.90;;;;;;5034168;28;19917;-82
2022/06/11 13:29:34;;;;;;;;;;;23.50;76.60;;;;;;5034072;28;19921;-82
2022/06/11 13:32:29;;;;;;;;;;;23.60;76.70;;;;;;5021995;28;19917;-81
2022/06/11 13:34:54;;;;;;;;;;;23.70;78.90;;;;;;5004695;28;20036;-81
2022/06/11 13:37:39;;;;;;;;;;;24.00;75.50;;;;;;5034722;28;19921;-81
2022/06/11 13:40:17;;;;;;;;;;;24.00;77.60;;;;;;5035623;28;19917;-81
2022/06/11 13:42:43;;;;;;;;;;;24.20;78.60;;;;;;5005659;28;19923;-81
2022/06/11 13:45:11;;;;;;;;;;;24.30;76.60;;;;;;5043094;28;20004;-81
2022/06/11 13:47:58;;;;;;;;;;;24.30;74.30;;;;;;5043860;28;19917;-82
2022/06/11 13:50:36;;;;;;;;;;;24.20;74.60;;;;;;5013092;28;20224;-81
2022/06/11 13:55:49;;;;;;;;;;;24.00;73.60;;;;;;5029898;28;19924;-81
2022/06/11 13:58:27;;;;;;;;;;;24.10;75.60;;;;;;5012799;28;19921;-82
2022/06/11 14:00:52;;;;;;;;;;;24.10;75.40;;;;;;5010196;28;20417;-82
2022/06/11 14:03:21;;;;;;;;;;;24.30;75.50;;;;;;4996424;28;20013;-83
2022/06/11 14:05:48;;;;;;;;;;;24.30;72.90;;;;;;5026382;28;19917;-82
2022/06/11 14:08:18;;;;;;;;;;;24.30;73.70;;;;;;5011714;28;19921;-80
2022/06/11 14:10:45;;;;;;;;;;;24.30;73.10;;;;;;5014757;28;20329;-80
2022/06/11 14:13:30;;;;;;;;;;;24.30;73.60;;;;;;5026184;28;19923;-81
2022/06/11 14:15:55;;;;;;;;;;;24.40;73.40;;;;;;5017056;28;20278;-81
2022/06/11 14:18:21;;;;;;;;;;;24.30;73.50;;;;;;4995921;28;20012;-80
2022/06/11 14:20:48;;;;;;;;;;;24.40;74.50;;;;;;4985953;28;19918;-81
2022/06/11 14:23:14;;;;;;;;;;;24.70;75.20;;;;;;5010987;28;19918;-81
2022/06/11 14:25:39;;;;;;;;;;;24.80;74.60;;;;;;5054036;28;19916;-82
2022/06/11 14:28:14;;;;;;;;;;;25.10;72.40;;;;;;5046095;28;19975;-82
2022/06/11 14:30:45;;;;;;;;;;;24.80;71.10;;;;;;5013706;28;20302;-81
2022/06/11 14:33:11;;;;;;;;;;;24.60;73.20;;;;;;4998147;28;19917;-80
2022/06/11 14:35:38;;;;;;;;;;;24.90;74.00;;;;;;5031142;28;19917;-81
2022/06/11 14:38:41;;;;;;;;;;;25.20;72.20;;;;;;5019153;28;19917;-81
2022/06/11 14:41:06;;;;;;;;;;;25.50;72.70;;;;;;5005040;28;19991;-81
2022/06/11 14:43:50;;;;;;;;;;;25.70;71.60;;;;;;5015945;28;20374;-81